sensor_id;sensor_type;location;lat;lon;timestamp;P1;durP1;ratioP1;P2;durP2;ratioP2
55076;SDS011;40971;44.702;11.030;2022-11-20T00:00:47;47.92;;;17.42;;
55076;SDS011;40971;44.702;11.030;2022-11-20T00:03:12;47.97;;;17.30;;
55076;SDS011;40971;44.702;11.030;2022-11-20T00:05:38;42.78;;;16.92;;
55076;SDS011;40971;44.702;11.030;2022-11-20T00:08:04;43.53;;;17.48;;
55076;SDS011;40971;44.702;11.030;2022-11-20T00:10:29;40.25;;;16.20;;
55076;SDS011;40971;44.702;11.030;2022-11-20T00:12:57;39.97;;;17.15;;
55076;SDS011;40971;44.702;11.030;2022-11-20T00:15:23;39.38;;;16.25;;
55076;SDS011;40971;44.702;11.030;2022-11-20T00:17:48;48.55;;;18.67;;
55076;SDS011;40971;44.702;11.030;2022-11-20T00:20:14;43.47;;;16.00;;
55076;SDS011;40971;44.702;11.030;2022-11-20T00:22:39;41.50;;;17.65;;
55076;SDS011;40971;44.702;11.030;2022-11-20T00:25:05;51.35;;;17.70;;
55076;SDS011;40971;44.702;11.030;2022-11-20T00:27:30;46.20;;;16.73;;
55076;SDS011;40971;44.702;11.030;2022-11-20T00:29:56;42.63;;;18.17;;
55076;SDS011;40971;44.702;11.030;2022-11-20T00:32:21;61.42;;;19.83;;
55076;SDS011;40971;44.702;11.030;2022-11-20T00:34:47;52.42;;;19.20;;
55076;SDS011;40971;44.702;11.030;2022-11-20T00:37:12;46.22;;;19.48;;
55076;SDS011;40971;44.702;11.030;2022-11-20T00:39:38;49.90;;;17.52;;
55076;SDS011;40971;44.702;11.030;2022-11-20T00:42:03;63.42;;;20.38;;
55076;SDS011;40971;44.702;11.030;2022-11-20T00:44:29;58.22;;;20.08;;
55076;SDS011;40971;44.702;11.030;2022-11-20T00:46:54;53.42;;;17.88;;
55076;SDS011;40971;44.702;11.030;2022-11-20T00:49:21;47.90;;;18.60;;
55076;SDS011;40971;44.702;11.030;2022-11-20T00:51:47;42.53;;;19.30;;
55076;SDS011;40971;44.702;11.030;2022-11-20T00:54:12;38.83;;;16.27;;
55076;SDS011;40971;44.702;11.030;2022-11-20T00:56:38;52.95;;;19.00;;
55076;SDS011;40971;44.702;11.030;2022-11-20T00:59:03;50.83;;;18.77;;
55076;SDS011;40971;44.702;11.030;2022-11-20T01:01:29;41.65;;;17.48;;
55076;SDS011;40971;44.702;11.030;2022-11-20T01:03:56;47.50;;;19.13;;
55076;SDS011;40971;44.702;11.030;2022-11-20T01:08:48;49.95;;;17.95;;
55076;SDS011;40971;44.702;11.030;2022-11-20T01:11:16;43.95;;;17.15;;
55076;SDS011;40971;44.702;11.030;2022-11-20T01:13:44;40.88;;;17.25;;
55076;SDS011;40971;44.702;11.030;2022-11-20T01:16:12;42.25;;;16.88;;
55076;SDS011;40971;44.702;11.030;2022-11-20T01:18:39;40.03;;;15.38;;
55076;SDS011;40971;44.702;11.030;2022-11-20T01:21:16;50.33;;;17.27;;
55076;SDS011;40971;44.702;11.030;2022-11-20T01:23:47;45.25;;;17.42;;
55076;SDS011;40971;44.702;11.030;2022-11-20T01:26:14;41.92;;;16.60;;
55076;SDS011;40971;44.702;11.030;2022-11-20T01:28:48;45.40;;;16.90;;
55076;SDS011;40971;44.702;11.030;2022-11-20T01:31:15;50.22;;;18.83;;
55076;SDS011;40971;44.702;11.030;2022-11-20T01:33:49;49.15;;;17.48;;
55076;SDS011;40971;44.702;11.030;2022-11-20T01:36:18;40.90;;;17.15;;
55076;SDS011;40971;44.702;11.030;2022-11-20T01:38:44;45.80;;;18.15;;
55076;SDS011;40971;44.702;11.030;2022-11-20T01:41:11;46.25;;;16.25;;
55076;SDS011;40971;44.702;11.030;2022-11-20T01:43:56;43.40;;;16.77;;
55076;SDS011;40971;44.702;11.030;2022-11-20T01:46:28;41.60;;;17.58;;
55076;SDS011;40971;44.702;11.030;2022-11-20T01:49:12;52.30;;;17.75;;
55076;SDS011;40971;44.702;11.030;2022-11-20T01:51:44;50.15;;;18.65;;
55076;SDS011;40971;44.702;11.030;2022-11-20T01:54:20;43.58;;;17.65;;
55076;SDS011;40971;44.702;11.030;2022-11-20T01:57:06;49.03;;;19.15;;
55076;SDS011;40971;44.702;11.030;2022-11-20T01:59:37;51.90;;;18.73;;
55076;SDS011;40971;44.702;11.030;2022-11-20T02:02:09;45.35;;;17.30;;
55076;SDS011;40971;44.702;11.030;2022-11-20T02:04:35;38.45;;;16.25;;
55076;SDS011;40971;44.702;11.030;2022-11-20T02:07:01;51.25;;;19.58;;
55076;SDS011;40971;44.702;11.030;2022-11-20T02:09:31;43.30;;;16.75;;
55076;SDS011;40971;44.702;11.030;2022-11-20T02:11:56;49.30;;;18.17;;
55076;SDS011;40971;44.702;11.030;2022-11-20T02:14:23;62.75;;;20.70;;
55076;SDS011;40971;44.702;11.030;2022-11-20T02:16:50;50.22;;;19.15;;
55076;SDS011;40971;44.702;11.030;2022-11-20T02:24:40;46.72;;;18.33;;
55076;SDS011;40971;44.702;11.030;2022-11-20T02:27:09;69.43;;;20.70;;
55076;SDS011;40971;44.702;11.030;2022-11-20T02:29:38;43.85;;;18.38;;
55076;SDS011;40971;44.702;11.030;2022-11-20T02:32:20;58.58;;;19.05;;
55076;SDS011;40971;44.702;11.030;2022-11-20T02:34:47;56.83;;;19.65;;
55076;SDS011;40971;44.702;11.030;2022-11-20T02:37:12;50.05;;;19.48;;
55076;SDS011;40971;44.702;11.030;2022-11-20T02:39:38;51.33;;;18.13;;
55076;SDS011;40971;44.702;11.030;2022-11-20T02:42:05;67.53;;;20.17;;
55076;SDS011;40971;44.702;11.030;2022-11-20T02:44:31;55.85;;;19.17;;
55076;SDS011;40971;44.702;11.030;2022-11-20T02:46:57;44.22;;;16.50;;
55076;SDS011;40971;44.702;11.030;2022-11-20T02:49:23;48.50;;;17.83;;
55076;SDS011;40971;44.702;11.030;2022-11-20T02:51:49;42.50;;;18.73;;
55076;SDS011;40971;44.702;11.030;2022-11-20T02:54:14;47.95;;;15.68;;
55076;SDS011;40971;44.702;11.030;2022-11-20T02:56:40;67.35;;;20.08;;
55076;SDS011;40971;44.702;11.030;2022-11-20T02:59:05;45.42;;;19.17;;
55076;SDS011;40971;44.702;11.030;2022-11-20T03:01:31;47.10;;;17.77;;
55076;SDS011;40971;44.702;11.030;2022-11-20T03:03:57;40.13;;;16.50;;
55076;SDS011;40971;44.702;11.030;2022-11-20T03:06:22;51.22;;;18.38;;
55076;SDS011;40971;44.702;11.030;2022-11-20T03:08:47;40.75;;;15.82;;
55076;SDS011;40971;44.702;11.030;2022-11-20T03:11:13;46.15;;;16.90;;
55076;SDS011;40971;44.702;11.030;2022-11-20T03:13:41;41.53;;;16.13;;
55076;SDS011;40971;44.702;11.030;2022-11-20T03:16:17;41.28;;;16.38;;
55076;SDS011;40971;44.702;11.030;2022-11-20T03:18:49;47.40;;;17.77;;
55076;SDS011;40971;44.702;11.030;2022-11-20T03:21:16;45.58;;;19.02;;
55076;SDS011;40971;44.702;11.030;2022-11-20T03:23:42;51.30;;;16.67;;
55076;SDS011;40971;44.702;11.030;2022-11-20T03:26:08;42.97;;;17.13;;
55076;SDS011;40971;44.702;11.030;2022-11-20T03:28:36;47.10;;;18.50;;
55076;SDS011;40971;44.702;11.030;2022-11-20T03:31:12;39.97;;;16.33;;
55076;SDS011;40971;44.702;11.030;2022-11-20T03:33:38;46.53;;;16.10;;
55076;SDS011;40971;44.702;11.030;2022-11-20T03:36:04;50.30;;;18.27;;
55076;SDS011;40971;44.702;11.030;2022-11-20T03:38:32;43.28;;;17.10;;
55076;SDS011;40971;44.702;11.030;2022-11-20T03:40:59;49.05;;;18.38;;
55076;SDS011;40971;44.702;11.030;2022-11-20T03:43:34;55.10;;;19.60;;
55076;SDS011;40971;44.702;11.030;2022-11-20T03:46:00;58.40;;;18.88;;
55076;SDS011;40971;44.702;11.030;2022-11-20T03:48:26;45.00;;;16.70;;
55076;SDS011;40971;44.702;11.030;2022-11-20T03:50:52;47.05;;;17.40;;
55076;SDS011;40971;44.702;11.030;2022-11-20T03:53:31;39.85;;;16.15;;
55076;SDS011;40971;44.702;11.030;2022-11-20T03:55:56;35.08;;;16.80;;
55076;SDS011;40971;44.702;11.030;2022-11-20T03:58:22;36.00;;;15.18;;
55076;SDS011;40971;44.702;11.030;2022-11-20T04:00:47;52.40;;;18.60;;
55076;SDS011;40971;44.702;11.030;2022-11-20T04:03:12;50.08;;;18.42;;
55076;SDS011;40971;44.702;11.030;2022-11-20T04:05:38;41.35;;;15.82;;
55076;SDS011;40971;44.702;11.030;2022-11-20T04:08:03;42.63;;;17.38;;
55076;SDS011;40971;44.702;11.030;2022-11-20T04:10:29;57.22;;;19.33;;
55076;SDS011;40971;44.702;11.030;2022-11-20T04:12:55;57.55;;;18.10;;
55076;SDS011;40971;44.702;11.030;2022-11-20T04:15:21;46.00;;;16.08;;
55076;SDS011;40971;44.702;11.030;2022-11-20T04:17:46;59.80;;;18.50;;
55076;SDS011;40971;44.702;11.030;2022-11-20T04:20:11;36.55;;;17.38;;
55076;SDS011;40971;44.702;11.030;2022-11-20T04:22:37;54.47;;;17.70;;
55076;SDS011;40971;44.702;11.030;2022-11-20T04:25:02;61.45;;;17.85;;
55076;SDS011;40971;44.702;11.030;2022-11-20T04:27:28;53.03;;;17.35;;
55076;SDS011;40971;44.702;11.030;2022-11-20T04:29:55;43.38;;;18.45;;
55076;SDS011;40971;44.702;11.030;2022-11-20T04:32:21;61.00;;;19.08;;
55076;SDS011;40971;44.702;11.030;2022-11-20T04:34:46;54.05;;;18.27;;
55076;SDS011;40971;44.702;11.030;2022-11-20T04:37:12;50.60;;;19.10;;
55076;SDS011;40971;44.702;11.030;2022-11-20T04:39:37;50.28;;;17.75;;
55076;SDS011;40971;44.702;11.030;2022-11-20T04:42:02;40.85;;;17.13;;
55076;SDS011;40971;44.702;11.030;2022-11-20T04:44:47;38.25;;;14.93;;
55076;SDS011;40971;44.702;11.030;2022-11-20T04:47:12;48.03;;;15.07;;
55076;SDS011;40971;44.702;11.030;2022-11-20T04:49:37;43.92;;;15.82;;
55076;SDS011;40971;44.702;11.030;2022-11-20T04:52:03;38.00;;;14.82;;
55076;SDS011;40971;44.702;11.030;2022-11-20T04:54:28;45.72;;;15.77;;
55076;SDS011;40971;44.702;11.030;2022-11-20T04:56:54;45.45;;;15.43;;
55076;SDS011;40971;44.702;11.030;2022-11-20T04:59:19;38.08;;;15.48;;
55076;SDS011;40971;44.702;11.030;2022-11-20T05:01:45;47.67;;;15.32;;
55076;SDS011;40971;44.702;11.030;2022-11-20T05:04:13;45.67;;;16.95;;
55076;SDS011;40971;44.702;11.030;2022-11-20T05:06:38;48.75;;;17.83;;
55076;SDS011;40971;44.702;11.030;2022-11-20T05:09:04;49.70;;;18.58;;
55076;SDS011;40971;44.702;11.030;2022-11-20T05:11:31;57.22;;;19.83;;
55076;SDS011;40971;44.702;11.030;2022-11-20T05:13:58;37.17;;;14.95;;
55076;SDS011;40971;44.702;11.030;2022-11-20T05:16:24;51.55;;;18.25;;
55076;SDS011;40971;44.702;11.030;2022-11-20T05:18:51;51.03;;;18.10;;
55076;SDS011;40971;44.702;11.030;2022-11-20T05:21:18;56.88;;;18.27;;
55076;SDS011;40971;44.702;11.030;2022-11-20T05:23:44;32.83;;;13.50;;
55076;SDS011;40971;44.702;11.030;2022-11-20T05:26:16;56.72;;;18.17;;
55076;SDS011;40971;44.702;11.030;2022-11-20T05:28:43;49.85;;;17.15;;
55076;SDS011;40971;44.702;11.030;2022-11-20T05:31:10;42.40;;;14.95;;
55076;SDS011;40971;44.702;11.030;2022-11-20T05:33:41;42.25;;;17.35;;
55076;SDS011;40971;44.702;11.030;2022-11-20T05:36:07;59.20;;;18.75;;
55076;SDS011;40971;44.702;11.030;2022-11-20T05:38:34;47.80;;;17.65;;
55076;SDS011;40971;44.702;11.030;2022-11-20T05:48:28;35.83;;;13.60;;
55076;SDS011;40971;44.702;11.030;2022-11-20T05:50:53;37.58;;;15.35;;
55076;SDS011;40971;44.702;11.030;2022-11-20T05:53:18;39.08;;;16.65;;
55076;SDS011;40971;44.702;11.030;2022-11-20T05:55:44;44.53;;;17.08;;
55076;SDS011;40971;44.702;11.030;2022-11-20T05:58:09;51.50;;;15.60;;
55076;SDS011;40971;44.702;11.030;2022-11-20T06:00:35;39.78;;;14.82;;
55076;SDS011;40971;44.702;11.030;2022-11-20T06:03:01;42.35;;;15.02;;
55076;SDS011;40971;44.702;11.030;2022-11-20T06:05:26;48.80;;;16.48;;
55076;SDS011;40971;44.702;11.030;2022-11-20T06:07:52;74.32;;;17.55;;
55076;SDS011;40971;44.702;11.030;2022-11-20T06:10:17;47.03;;;17.42;;
55076;SDS011;40971;44.702;11.030;2022-11-20T06:12:47;40.70;;;16.33;;
55076;SDS011;40971;44.702;11.030;2022-11-20T06:15:17;29.35;;;12.80;;
55076;SDS011;40971;44.702;11.030;2022-11-20T06:17:43;28.10;;;11.68;;
55076;SDS011;40971;44.702;11.030;2022-11-20T06:20:08;53.30;;;16.55;;
55076;SDS011;40971;44.702;11.030;2022-11-20T06:22:34;32.72;;;15.20;;
55076;SDS011;40971;44.702;11.030;2022-11-20T06:24:59;54.35;;;18.40;;
55076;SDS011;40971;44.702;11.030;2022-11-20T06:27:25;46.88;;;16.00;;
55076;SDS011;40971;44.702;11.030;2022-11-20T06:29:50;50.13;;;17.85;;
55076;SDS011;40971;44.702;11.030;2022-11-20T06:32:16;39.30;;;16.52;;
55076;SDS011;40971;44.702;11.030;2022-11-20T06:34:41;47.72;;;17.42;;
55076;SDS011;40971;44.702;11.030;2022-11-20T06:37:07;55.05;;;18.60;;
55076;SDS011;40971;44.702;11.030;2022-11-20T06:39:32;40.67;;;16.13;;
55076;SDS011;40971;44.702;11.030;2022-11-20T06:41:57;46.30;;;16.00;;
55076;SDS011;40971;44.702;11.030;2022-11-20T06:44:23;45.42;;;17.50;;
55076;SDS011;40971;44.702;11.030;2022-11-20T06:46:48;48.42;;;17.77;;
55076;SDS011;40971;44.702;11.030;2022-11-20T06:49:14;44.42;;;17.17;;
55076;SDS011;40971;44.702;11.030;2022-11-20T06:51:39;46.90;;;15.52;;
55076;SDS011;40971;44.702;11.030;2022-11-20T06:54:09;35.65;;;15.15;;
55076;SDS011;40971;44.702;11.030;2022-11-20T06:56:35;35.53;;;15.45;;
55076;SDS011;40971;44.702;11.030;2022-11-20T06:59:03;51.63;;;18.85;;
55076;SDS011;40971;44.702;11.030;2022-11-20T07:01:30;50.42;;;18.17;;
55076;SDS011;40971;44.702;11.030;2022-11-20T07:03:56;53.03;;;16.70;;
55076;SDS011;40971;44.702;11.030;2022-11-20T07:06:21;61.63;;;17.23;;
55076;SDS011;40971;44.702;11.030;2022-11-20T07:08:46;45.17;;;15.32;;
55076;SDS011;40971;44.702;11.030;2022-11-20T11:12:56;59.20;;;25.52;;
55076;SDS011;40971;44.702;11.030;2022-11-20T11:15:40;63.90;;;27.60;;
55076;SDS011;40971;44.702;11.030;2022-11-20T11:18:09;62.38;;;26.50;;
55076;SDS011;40971;44.702;11.030;2022-11-20T11:20:36;62.95;;;27.15;;
55076;SDS011;40971;44.702;11.030;2022-11-20T11:23:02;63.42;;;28.25;;
55076;SDS011;40971;44.702;11.030;2022-11-20T11:25:34;70.30;;;28.73;;
55076;SDS011;40971;44.702;11.030;2022-11-20T11:28:02;66.50;;;26.77;;
55076;SDS011;40971;44.702;11.030;2022-11-20T11:30:51;58.60;;;26.35;;
55076;SDS011;40971;44.702;11.030;2022-11-20T11:33:20;65.88;;;27.05;;
55076;SDS011;40971;44.702;11.030;2022-11-20T11:35:49;63.97;;;26.90;;
55076;SDS011;40971;44.702;11.030;2022-11-20T11:41:02;59.38;;;25.95;;
55076;SDS011;40971;44.702;11.030;2022-11-20T11:43:30;69.43;;;26.95;;
55076;SDS011;40971;44.702;11.030;2022-11-20T11:48:58;55.72;;;22.92;;
55076;SDS011;40971;44.702;11.030;2022-11-20T11:51:31;53.70;;;24.60;;
55076;SDS011;40971;44.702;11.030;2022-11-20T11:54:04;63.03;;;24.40;;
55076;SDS011;40971;44.702;11.030;2022-11-20T11:59:04;58.30;;;25.13;;
55076;SDS011;40971;44.702;11.030;2022-11-20T12:01:54;56.45;;;23.67;;
55076;SDS011;40971;44.702;11.030;2022-11-20T12:04:48;50.67;;;23.23;;
55076;SDS011;40971;44.702;11.030;2022-11-20T12:07:24;57.13;;;23.70;;
55076;SDS011;40971;44.702;11.030;2022-11-20T12:10:03;61.78;;;23.85;;
55076;SDS011;40971;44.702;11.030;2022-11-20T12:12:30;49.40;;;24.02;;
55076;SDS011;40971;44.702;11.030;2022-11-20T12:15:11;60.67;;;25.20;;
55076;SDS011;40971;44.702;11.030;2022-11-20T12:17:41;48.88;;;22.05;;
55076;SDS011;40971;44.702;11.030;2022-11-20T12:20:11;47.03;;;21.33;;
55076;SDS011;40971;44.702;11.030;2022-11-20T12:25:27;48.17;;;22.33;;
55076;SDS011;40971;44.702;11.030;2022-11-20T12:33:43;50.47;;;20.02;;
55076;SDS011;40971;44.702;11.030;2022-11-20T12:36:19;44.75;;;20.73;;
55076;SDS011;40971;44.702;11.030;2022-11-20T12:39:17;40.92;;;19.35;;
55076;SDS011;40971;44.702;11.030;2022-11-20T12:42:00;45.00;;;19.98;;
55076;SDS011;40971;44.702;11.030;2022-11-20T12:47:52;43.20;;;18.13;;
55076;SDS011;40971;44.702;11.030;2022-11-20T13:07:31;36.63;;;16.52;;
55076;SDS011;40971;44.702;11.030;2022-11-20T13:10:00;39.33;;;17.10;;
55076;SDS011;40971;44.702;11.030;2022-11-20T13:12:36;34.22;;;15.82;;
55076;SDS011;40971;44.702;11.030;2022-11-20T13:17:59;32.45;;;15.15;;
55076;SDS011;40971;44.702;11.030;2022-11-20T13:20:26;31.40;;;15.70;;
55076;SDS011;40971;44.702;11.030;2022-11-20T13:22:53;34.83;;;15.02;;
55076;SDS011;40971;44.702;11.030;2022-11-20T13:30:48;36.63;;;14.38;;
55076;SDS011;40971;44.702;11.030;2022-11-20T13:33:29;33.72;;;14.95;;
55076;SDS011;40971;44.702;11.030;2022-11-20T13:35:56;33.72;;;14.57;;
55076;SDS011;40971;44.702;11.030;2022-11-20T13:38:40;30.42;;;13.80;;
55076;SDS011;40971;44.702;11.030;2022-11-20T13:41:23;29.33;;;13.75;;
55076;SDS011;40971;44.702;11.030;2022-11-20T13:43:53;31.15;;;14.27;;
55076;SDS011;40971;44.702;11.030;2022-11-20T13:46:34;31.58;;;13.43;;
55076;SDS011;40971;44.702;11.030;2022-11-20T13:49:09;29.35;;;13.55;;
55076;SDS011;40971;44.702;11.030;2022-11-20T13:51:43;29.90;;;12.98;;
55076;SDS011;40971;44.702;11.030;2022-11-20T14:00:13;34.45;;;14.70;;
55076;SDS011;40971;44.702;11.030;2022-11-20T14:02:41;30.95;;;14.13;;
55076;SDS011;40971;44.702;11.030;2022-11-20T14:05:19;32.80;;;13.27;;
55076;SDS011;40971;44.702;11.030;2022-11-20T14:07:50;29.88;;;13.75;;
55076;SDS011;40971;44.702;11.030;2022-11-20T14:12:53;34.88;;;15.38;;
55076;SDS011;40971;44.702;11.030;2022-11-20T14:17:50;32.35;;;14.50;;
55076;SDS011;40971;44.702;11.030;2022-11-20T14:20:15;31.65;;;13.68;;
55076;SDS011;40971;44.702;11.030;2022-11-20T14:22:50;30.40;;;13.35;;
55076;SDS011;40971;44.702;11.030;2022-11-20T14:27:51;29.63;;;13.80;;
55076;SDS011;40971;44.702;11.030;2022-11-20T14:30:20;31.02;;;14.50;;
55076;SDS011;40971;44.702;11.030;2022-11-20T14:32:48;31.35;;;14.65;;
55076;SDS011;40971;44.702;11.030;2022-11-20T14:35:21;29.25;;;13.70;;
55076;SDS011;40971;44.702;11.030;2022-11-20T14:37:55;32.30;;;13.15;;
55076;SDS011;40971;44.702;11.030;2022-11-20T14:42:49;31.70;;;15.13;;
55076;SDS011;40971;44.702;11.030;2022-11-20T14:45:14;31.17;;;14.32;;
55076;SDS011;40971;44.702;11.030;2022-11-20T14:47:41;32.72;;;14.40;;
55076;SDS011;40971;44.702;11.030;2022-11-20T14:50:15;34.40;;;14.50;;
55076;SDS011;40971;44.702;11.030;2022-11-20T14:52:51;29.33;;;14.73;;
55076;SDS011;40971;44.702;11.030;2022-11-20T14:55:36;37.15;;;14.38;;
55076;SDS011;40971;44.702;11.030;2022-11-20T14:58:04;32.25;;;14.13;;
55076;SDS011;40971;44.702;11.030;2022-11-20T15:00:31;32.25;;;12.85;;
55076;SDS011;40971;44.702;11.030;2022-11-20T15:02:58;32.17;;;13.13;;
55076;SDS011;40971;44.702;11.030;2022-11-20T15:05:44;29.90;;;12.27;;
55076;SDS011;40971;44.702;11.030;2022-11-20T15:08:11;27.52;;;12.85;;
55076;SDS011;40971;44.702;11.030;2022-11-20T15:10:38;31.27;;;13.27;;
55076;SDS011;40971;44.702;11.030;2022-11-20T15:13:19;28.10;;;11.90;;
55076;SDS011;40971;44.702;11.030;2022-11-20T15:15:58;31.90;;;11.25;;
55076;SDS011;40971;44.702;11.030;2022-11-20T15:18:35;26.23;;;11.73;;
55076;SDS011;40971;44.702;11.030;2022-11-20T15:21:03;22.05;;;9.60;;
55076;SDS011;40971;44.702;11.030;2022-11-20T15:23:35;23.65;;;9.95;;
55076;SDS011;40971;44.702;11.030;2022-11-20T15:26:00;19.95;;;9.23;;
55076;SDS011;40971;44.702;11.030;2022-11-20T15:28:30;19.73;;;8.68;;
55076;SDS011;40971;44.702;11.030;2022-11-20T15:30:58;21.08;;;8.57;;
55076;SDS011;40971;44.702;11.030;2022-11-20T15:33:24;22.73;;;9.32;;
55076;SDS011;40971;44.702;11.030;2022-11-20T15:35:49;22.60;;;9.52;;
55076;SDS011;40971;44.702;11.030;2022-11-20T15:38:15;24.90;;;10.15;;
55076;SDS011;40971;44.702;11.030;2022-11-20T15:40:40;27.17;;;11.15;;
55076;SDS011;40971;44.702;11.030;2022-11-20T15:43:06;25.15;;;10.50;;
55076;SDS011;40971;44.702;11.030;2022-11-20T15:45:40;22.88;;;9.93;;
55076;SDS011;40971;44.702;11.030;2022-11-20T15:48:09;22.35;;;10.38;;
55076;SDS011;40971;44.702;11.030;2022-11-20T15:50:42;23.85;;;9.85;;
55076;SDS011;40971;44.702;11.030;2022-11-20T15:53:39;24.23;;;10.45;;
55076;SDS011;40971;44.702;11.030;2022-11-20T15:56:05;23.15;;;10.57;;
55076;SDS011;40971;44.702;11.030;2022-11-20T15:58:31;34.00;;;12.85;;
55076;SDS011;40971;44.702;11.030;2022-11-20T16:00:57;30.88;;;12.55;;
55076;SDS011;40971;44.702;11.030;2022-11-20T16:03:23;31.15;;;12.07;;
55076;SDS011;40971;44.702;11.030;2022-11-20T16:05:49;25.60;;;10.25;;
55076;SDS011;40971;44.702;11.030;2022-11-20T16:08:14;25.65;;;10.35;;
55076;SDS011;40971;44.702;11.030;2022-11-20T16:10:40;25.42;;;10.65;;
55076;SDS011;40971;44.702;11.030;2022-11-20T16:13:15;22.38;;;10.52;;
55076;SDS011;40971;44.702;11.030;2022-11-20T16:16:21;24.83;;;10.30;;
55076;SDS011;40971;44.702;11.030;2022-11-20T16:18:49;22.20;;;8.93;;
55076;SDS011;40971;44.702;11.030;2022-11-20T16:21:14;26.65;;;9.20;;
55076;SDS011;40971;44.702;11.030;2022-11-20T16:23:40;21.10;;;9.43;;
55076;SDS011;40971;44.702;11.030;2022-11-20T16:26:14;18.77;;;8.38;;
55076;SDS011;40971;44.702;11.030;2022-11-20T16:28:45;29.63;;;10.20;;
55076;SDS011;40971;44.702;11.030;2022-11-20T16:31:15;21.85;;;9.05;;
55076;SDS011;40971;44.702;11.030;2022-11-20T16:33:42;26.35;;;10.55;;
55076;SDS011;40971;44.702;11.030;2022-11-20T16:36:14;24.63;;;9.30;;
55076;SDS011;40971;44.702;11.030;2022-11-20T16:38:40;23.15;;;9.10;;
55076;SDS011;40971;44.702;11.030;2022-11-20T16:41:11;31.20;;;10.85;;
55076;SDS011;40971;44.702;11.030;2022-11-20T16:46:17;21.67;;;8.65;;
55076;SDS011;40971;44.702;11.030;2022-11-20T16:48:45;22.00;;;9.50;;
55076;SDS011;40971;44.702;11.030;2022-11-20T16:51:17;29.48;;;10.35;;
55076;SDS011;40971;44.702;11.030;2022-11-20T16:53:43;20.70;;;9.65;;
55076;SDS011;40971;44.702;11.030;2022-11-20T16:56:09;19.13;;;9.30;;
55076;SDS011;40971;44.702;11.030;2022-11-20T17:01:27;26.10;;;10.40;;
55076;SDS011;40971;44.702;11.030;2022-11-20T17:04:01;26.52;;;10.77;;
55076;SDS011;40971;44.702;11.030;2022-11-20T17:06:32;24.02;;;9.15;;
55076;SDS011;40971;44.702;11.030;2022-11-20T17:08:59;28.98;;;11.57;;
55076;SDS011;40971;44.702;11.030;2022-11-20T17:11:24;31.40;;;12.48;;
55076;SDS011;40971;44.702;11.030;2022-11-20T17:13:51;28.73;;;10.95;;
55076;SDS011;40971;44.702;11.030;2022-11-20T17:16:19;41.35;;;12.40;;
55076;SDS011;40971;44.702;11.030;2022-11-20T17:18:53;24.48;;;9.95;;
55076;SDS011;40971;44.702;11.030;2022-11-20T17:21:20;25.65;;;8.38;;
55076;SDS011;40971;44.702;11.030;2022-11-20T17:23:46;18.67;;;8.43;;
55076;SDS011;40971;44.702;11.030;2022-11-20T17:26:12;17.27;;;7.18;;
55076;SDS011;40971;44.702;11.030;2022-11-20T17:28:53;20.50;;;8.65;;
55076;SDS011;40971;44.702;11.030;2022-11-20T17:31:24;26.17;;;9.73;;
55076;SDS011;40971;44.702;11.030;2022-11-20T17:33:51;24.80;;;10.25;;
55076;SDS011;40971;44.702;11.030;2022-11-20T17:36:17;25.33;;;10.05;;
55076;SDS011;40971;44.702;11.030;2022-11-20T17:38:43;23.73;;;9.50;;
55076;SDS011;40971;44.702;11.030;2022-11-20T17:41:10;21.55;;;8.88;;
55076;SDS011;40971;44.702;11.030;2022-11-20T17:43:47;25.63;;;9.65;;
55076;SDS011;40971;44.702;11.030;2022-11-20T17:46:15;18.20;;;8.40;;
55076;SDS011;40971;44.702;11.030;2022-11-20T17:48:42;20.05;;;8.48;;
55076;SDS011;40971;44.702;11.030;2022-11-20T17:51:11;18.63;;;8.35;;
55076;SDS011;40971;44.702;11.030;2022-11-20T17:53:39;19.23;;;8.10;;
55076;SDS011;40971;44.702;11.030;2022-11-20T17:56:06;24.30;;;10.35;;
55076;SDS011;40971;44.702;11.030;2022-11-20T17:59:06;22.50;;;9.77;;
55076;SDS011;40971;44.702;11.030;2022-11-20T18:01:35;20.25;;;8.40;;
55076;SDS011;40971;44.702;11.030;2022-11-20T18:04:00;15.90;;;7.63;;
55076;SDS011;40971;44.702;11.030;2022-11-20T18:06:27;13.48;;;5.60;;
55076;SDS011;40971;44.702;11.030;2022-11-20T18:08:53;19.40;;;5.50;;
55076;SDS011;40971;44.702;11.030;2022-11-20T18:11:20;14.57;;;5.97;;
55076;SDS011;40971;44.702;11.030;2022-11-20T18:13:49;15.70;;;6.63;;
55076;SDS011;40971;44.702;11.030;2022-11-20T18:16:36;12.65;;;5.55;;
55076;SDS011;40971;44.702;11.030;2022-11-20T18:19:26;18.42;;;7.03;;
55076;SDS011;40971;44.702;11.030;2022-11-20T18:21:54;22.20;;;8.68;;
55076;SDS011;40971;44.702;11.030;2022-11-20T18:24:19;22.35;;;8.52;;
55076;SDS011;40971;44.702;11.030;2022-11-20T18:26:45;19.05;;;8.57;;
55076;SDS011;40971;44.702;11.030;2022-11-20T18:29:11;23.48;;;8.45;;
55076;SDS011;40971;44.702;11.030;2022-11-20T18:31:37;26.08;;;9.80;;
55076;SDS011;40971;44.702;11.030;2022-11-20T18:34:03;19.58;;;7.75;;
55076;SDS011;40971;44.702;11.030;2022-11-20T18:36:30;21.02;;;8.02;;
55076;SDS011;40971;44.702;11.030;2022-11-20T18:39:03;15.65;;;7.25;;
55076;SDS011;40971;44.702;11.030;2022-11-20T18:41:29;20.92;;;6.78;;
55076;SDS011;40971;44.702;11.030;2022-11-20T18:44:14;22.45;;;8.38;;
55076;SDS011;40971;44.702;11.030;2022-11-20T18:47:00;22.50;;;7.38;;
55076;SDS011;40971;44.702;11.030;2022-11-20T18:49:26;20.90;;;9.60;;
55076;SDS011;40971;44.702;11.030;2022-11-20T18:51:54;25.17;;;10.75;;
55076;SDS011;40971;44.702;11.030;2022-11-20T18:54:25;24.05;;;10.60;;
55076;SDS011;40971;44.702;11.030;2022-11-20T18:56:50;20.02;;;8.93;;
55076;SDS011;40971;44.702;11.030;2022-11-20T18:59:16;24.52;;;11.70;;
55076;SDS011;40971;44.702;11.030;2022-11-20T19:01:44;24.65;;;11.10;;
55076;SDS011;40971;44.702;11.030;2022-11-20T19:04:10;26.42;;;10.95;;
55076;SDS011;40971;44.702;11.030;2022-11-20T19:06:37;28.50;;;11.98;;
55076;SDS011;40971;44.702;11.030;2022-11-20T19:09:05;23.50;;;11.20;;
55076;SDS011;40971;44.702;11.030;2022-11-20T19:11:35;29.90;;;12.07;;
55076;SDS011;40971;44.702;11.030;2022-11-20T19:14:01;29.60;;;11.82;;
55076;SDS011;40971;44.702;11.030;2022-11-20T19:16:27;29.02;;;12.45;;
55076;SDS011;40971;44.702;11.030;2022-11-20T19:18:52;25.63;;;12.20;;
55076;SDS011;40971;44.702;11.030;2022-11-20T19:21:19;25.40;;;11.85;;
55076;SDS011;40971;44.702;11.030;2022-11-20T19:23:51;37.83;;;11.48;;
55076;SDS011;40971;44.702;11.030;2022-11-20T19:26:18;28.77;;;11.73;;
55076;SDS011;40971;44.702;11.030;2022-11-20T19:28:44;24.60;;;11.27;;
55076;SDS011;40971;44.702;11.030;2022-11-20T19:31:12;24.02;;;10.48;;
55076;SDS011;40971;44.702;11.030;2022-11-20T19:33:39;23.98;;;10.75;;
55076;SDS011;40971;44.702;11.030;2022-11-20T19:38:45;20.58;;;8.95;;
55076;SDS011;40971;44.702;11.030;2022-11-20T19:41:12;23.52;;;10.30;;
55076;SDS011;40971;44.702;11.030;2022-11-20T19:43:40;23.80;;;10.52;;
55076;SDS011;40971;44.702;11.030;2022-11-20T19:46:06;29.92;;;9.50;;
55076;SDS011;40971;44.702;11.030;2022-11-20T19:48:32;27.48;;;10.55;;